METAR Data
IDs: Format: Raw Decoded Include TAF

Data at: 1823 UTC 16 Oct 2021

K11R 161815Z AUTO 04009G15KT 360V090 10SM CLR 22/06 A3031 RMK AO2 T02190061
K11R 161755Z AUTO 05009G17KT 020V080 10SM CLR 22/06 A3033 RMK AO2 T02160060 10216 20126
K11R 161735Z AUTO 02010G15KT 10SM CLR 22/06 A3033 RMK AO2 T02160063
K11R 161715Z AUTO 04007G15KT 10SM CLR 21/06 A3034 RMK AO2 T02110058
K11R 161655Z AUTO 04011G16KT 10SM CLR 21/06 A3034 RMK AO2 T02080056
K11R 161635Z AUTO 05009G17KT 020V080 10SM CLR 21/06 A3034 RMK AO2 T02070055
K11R 161615Z AUTO 04008G15KT 020V080 10SM CLR 21/06 A3035 RMK AO2 T02090057
K11R 161555Z AUTO 04008G18KT 10SM CLR 20/07 A3035 RMK AO2 T02010072
K11R 161535Z AUTO 04007G17KT 10SM CLR 19/07 A3034 RMK AO2 T01930066
K11R 161515Z AUTO 03006G15KT 10SM CLR 19/07 A3035 RMK AO2 T01920069
K11R 161455Z AUTO 03007G14KT 360V060 10SM CLR 19/07 A3034 RMK AO2 T01850074
K11R 161435Z AUTO 04006G14KT 10SM CLR 18/08 A3034 RMK AO2 T01760081
K11R 161415Z AUTO 03007KT 360V060 10SM CLR 17/09 A3034 RMK AO2 T01670086
K11R 161355Z AUTO 01006KT 10SM CLR 16/09 A3033 RMK AO2 T01560089
K11R 161335Z AUTO 01007KT 10SM CLR 15/09 A3033 RMK AO2 T01490090
K11R 161315Z AUTO 36005KT 10SM CLR 14/10 A3032 RMK AO2 T01370095
K11R 161255Z AUTO 34003KT 10SM CLR 13/09 A3031 RMK AO2 T01270092
K11R 161235Z AUTO 36004KT 10SM CLR 13/09 A3031 RMK AO2 T01290086
K11R 161215Z AUTO 01003KT 10SM CLR 14/08 A3030 RMK AO2 T01380082
K11R 161155Z AUTO 01003KT 10SM CLR 14/08 A3030 RMK AO2 70001 T01430082 10191 20143
K11R 161135Z AUTO 03003KT 10SM CLR 15/08 A3029 RMK AO2 T01460081
K11R 161115Z AUTO 02006KT 10SM CLR 15/08 A3027 RMK AO2 T01480082
K11R 161055Z AUTO 01005KT 10SM CLR 15/08 A3027 RMK AO2 T01510084
K11R 161035Z AUTO 01006KT 10SM CLR 15/09 A3026 RMK AO2 T01540085
K11R 161015Z AUTO 01007KT 10SM CLR 16/09 A3025 RMK AO2 T01560085
K11R 160955Z AUTO 01007KT 10SM CLR 16/09 A3025 RMK AO2 T01580085
K11R 160935Z AUTO 01008G16KT 10SM CLR 16/09 A3024 RMK AO2 T01630085
K11R 160915Z AUTO 01009G16KT 10SM CLR 17/09 A3023 RMK AO2 T01650085
K11R 160855Z AUTO 01007KT 10SM CLR 17/08 A3023 RMK AO2 T01690083
K11R 160835Z AUTO 01010G15KT 10SM CLR 17/08 A3022 RMK AO2 T01720084
K11R 160815Z AUTO 01010KT 10SM CLR 17/09 A3022 RMK AO2 T01720085
K11R 160755Z AUTO 01009KT 10SM CLR 18/09 A3022 RMK AO2 T01750089
K11R 160735Z AUTO 01007KT 10SM CLR 18/10 A3021 RMK AO2 T01750097
K11R 160715Z AUTO 01008KT 10SM CLR 18/11 A3022 RMK AO2 T01760105
K11R 160655Z AUTO 01009G15KT 10SM CLR 18/10 A3021 RMK AO2 T01840102
K11R 160635Z AUTO 36011G18KT 10SM CLR 19/11 A3020 RMK AO2 T01870105
K11R 160615Z AUTO 36011G20KT 10SM CLR 19/11 A3020 RMK AO2 T01900108
K11R 160555Z AUTO 36012G19KT 10SM CLR 19/12 A3020 RMK AO2 T01920115 10248 20192 403230192
K11R 160535Z AUTO 01014G19KT 10SM CLR 20/12 A3019 RMK AO2 T01960121
K11R 160515Z AUTO 36012G19KT 10SM CLR 20/12 A3019 RMK AO2 T02000124
K11R 160455Z AUTO 36011G15KT 10SM CLR 20/14 A3019 RMK AO2 T02000136
K11R 160435Z AUTO 36009G15KT 10SM CLR 20/14 A3018 RMK AO2 T02040141
K11R 160415Z AUTO 36010G16KT 10SM CLR 21/15 A3017 RMK AO2 T02060145
K11R 160355Z AUTO 36008KT 10SM CLR 21/15 A3017 RMK AO2 T02080150
K11R 160335Z AUTO 36010KT 10SM CLR 21/15 A3015 RMK AO2 T02130152
K11R 160315Z AUTO 36012G18KT 10SM CLR 22/16 A3014 RMK AO2 T02150155
K11R 160255Z AUTO 35009G16KT 10SM CLR 22/16 A3012 RMK AO2 T02170160
K11R 160235Z AUTO 35014G18KT 10SM CLR 22/16 A3010 RMK AO2 T02190164
K11R 160215Z AUTO 35013G18KT 10SM CLR 22/17 A3009 RMK AO2 T02210169
K11R 160155Z AUTO 35011G18KT 10SM CLR 23/17 A3008 RMK AO2 T02250171
K11R 160135Z AUTO 34013G18KT 10SM CLR 23/17 A3006 RMK AO2 T02280173
K11R 160115Z AUTO 35014G19KT 10SM CLR 23/18 A3005 RMK AO2 T02320178
K11R 160055Z AUTO 34014G20KT 10SM CLR 24/18 A3005 RMK AO2 T02370180
K11R 160035Z AUTO 34015G21KT 10SM CLR 24/18 A3004 RMK AO2 T02420183
K11R 160015Z AUTO 34010G17KT 10SM CLR 25/19 A3002 RMK AO2 T02450188
K11R 152355Z AUTO 34013KT 10SM CLR 25/19 A3001 RMK AO2 T02500189 10323 20250
K11R 152335Z AUTO 34013G17KT 10SM CLR 25/19 A3000 RMK AO2 T02540188
K11R 152315Z AUTO 34012G15KT 10SM CLR 26/19 A3000 RMK AO2 T02560190
K11R 152255Z AUTO 34013G20KT 10SM CLR 26/19 A2999 RMK AO2 T02600189
K11R 152235Z AUTO 34016G23KT 10SM CLR 27/20 A2998 RMK AO2 T02650197
K11R 152215Z AUTO 35014G18KT 10SM CLR 28/21 A2997 RMK AO2 T02760211
K11R 152155Z AUTO 35012G22KT 10SM CLR 28/22 A2995 RMK AO2 T02800221
K11R 152135Z AUTO 35015G18KT 10SM SCT035 SCT049 SCT060 30/23 A2995 RMK AO2 T02950230
K11R 152115Z AUTO 34014G23KT 10SM SCT033 SCT049 BKN120 30/23 A2994 RMK AO2 T02950225
K11R 152055Z AUTO 31008KT 10SM BKN110 31/23 A2993 RMK AO2 T03100231
K11R 152035Z AUTO 31007KT 10SM BKN110 31/23 A2993 RMK AO2 T03130226
K11R 152015Z AUTO 31008KT 10SM CLR 32/23 A2993 RMK AO2 T03210228
K11R 151955Z AUTO 31006KT 10SM CLR 32/23 A2993 RMK AO2 T03180231
K11R 151935Z AUTO 31010KT 10SM CLR 32/23 A2994 RMK AO2 T03190228
K11R 151915Z AUTO 28009KT 10SM SCT031 SCT049 31/23 A2995 RMK AO2 T03050231
K11R 151855Z AUTO 28009KT 10SM SCT029 SCT034 SCT060 31/24 A2995 RMK AO2 T03130237
K11R 151835Z AUTO 29008KT 10SM SCT028 SCT034 SCT060 31/24 A2996 RMK AO2 T03060244
K11R 151815Z AUTO 30009KT 10SM SCT026 SCT050 31/24 A2996 RMK AO2 T03110238
K11R 151755Z AUTO 28009KT 260V320 10SM BKN026 31/25 A2997 RMK AO2 60001 T03120245 10312 20218
K11R 151735Z AUTO 27007KT 10SM SCT018 SCT024 SCT050 30/25 A2997 RMK AO2 T02980247
K11R 151715Z AUTO 30007KT 10SM BKN017 BKN026 OVC031 29/25 A2998 RMK AO2 T02860247
K11R 151655Z AUTO 23007KT 10SM BKN017 30/25 A2998 RMK AO2 T02960251
K11R 151635Z AUTO 27009KT 10SM SCT015 SCT027 29/25 A2999 RMK AO2 T02900250
K11R 151615Z AUTO 27005KT 10SM SCT009 BKN012 OVC027 28/26 A2998 RMK AO2 T02830255
K11R 151555Z AUTO 22003KT 10SM OVC009 27/26 A2997 RMK AO2 T02650258
K11R 151535Z AUTO 20003KT 10SM SCT006 BKN009 BKN013 26/26 A2997 RMK AO2 T02610257
K11R 151515Z AUTO 00000KT 10SM BKN004 OVC011 25/25 A2997 RMK AO2 T02520249
K11R 151455Z AUTO 00000KT 7SM RA BKN004 BKN009 OVC016 25/24 A2997 RMK AO2 60001 T02470243
K11R 151435Z AUTO 00000KT 5SM BR BKN004 OVC014 24/24 A2997 RMK AO2 T02420240
K11R 151415Z AUTO 00000KT 5SM BR BKN004 OVC014 24/24 A2996 RMK AO2 T02410239
K11R 151355Z AUTO 00000KT 5SM BR OVC004 24/24 A2995 RMK AO2 T02380235
K11R 151335Z AUTO 00000KT 5SM BR BKN004 OVC015 24/23 A2994 RMK AO2 T02350231
K11R 151315Z AUTO 00000KT 4SM BR SCT004 BKN015 OVC022 23/23 A2993 RMK AO2 T02280225
K11R 151255Z AUTO 00000KT 1 1/4SM BR SCT004 BKN015 OVC022 22/22 A2992 RMK AO2 P0001 T02200217
K11R 151235Z AUTO 00000KT 1/4SM FG OVC002 22/22 A2992 RMK AO2 P0001 T02200216
K11R 151215Z AUTO 00000KT 1/4SM FG OVC004 22/22 A2991 RMK AO2 T02210219
K11R 151155Z AUTO 00000KT 1/2SM FG BKN006 OVC009 22/22 A2991 RMK AO2 70023 T02210218 10231 20220
K11R 151135Z AUTO 00000KT 3/4SM BR OVC016 23/22 A2991 RMK AO2 T02250221
K11R 151115Z AUTO 00000KT 1/2SM FG BKN011 BKN018 23/23 A2990 RMK AO2 T02280225
K11R 151055Z AUTO 00000KT 1/2SM FG OVC011 23/23 A2989 RMK AO2 T02280225
K11R 151035Z AUTO 00000KT 3/4SM BR OVC011 23/23 A2989 RMK AO2 T02270225
K11R 151015Z AUTO 00000KT 4SM BR SCT011 23/23 A2988 RMK AO2 T02300226
K11R 150955Z AUTO 00000KT 4SM BR CLR 23/23 A2988 RMK AO2 T02300226
K11R 150935Z AUTO 00000KT 2SM BR CLR 23/23 A2988 RMK AO2 T02290225
K11R 150915Z AUTO 00000KT 4SM BR CLR 23/23 A2988 RMK AO2 T02280225
K11R 150855Z AUTO 00000KT 2 1/2SM BR CLR 23/23 A2988 RMK AO2 T02280225
K11R 150835Z AUTO 00000KT 4SM BR CLR 23/23 A2988 RMK AO2 T02280225
K11R 150815Z AUTO 00000KT 5SM BR SCT002 23/23 A2988 RMK AO2 T02300225
K11R 150755Z AUTO 17003KT 5SM BR OVC002 23/23 A2988 RMK AO2 T02300226
K11R 150735Z AUTO 16003KT 4SM BR OVC002 23/23 A2988 RMK AO2 T02300225
K11R 150715Z AUTO 00000KT 1 1/2SM BR OVC002 23/23 A2988 RMK AO2 T02300225
K11R 150655Z AUTO 00000KT 4SM BR SCT002 SCT006 23/23 A2988 RMK AO2 T02300226
K11R 150635Z AUTO 00000KT 7SM CLR 23/23 A2988 RMK AO2 T02300226